sensor_id;sensor_type;location;lat;lon;timestamp;P1;durP1;ratioP1;P2;durP2;ratioP2
77012;SDS011;67260;53.130;17.982;2023-03-08T00:01:14;14.70;;;5.80;;
77012;SDS011;67260;53.130;17.982;2023-03-08T00:03:43;18.30;;;5.70;;
77012;SDS011;67260;53.130;17.982;2023-03-08T00:06:12;12.90;;;4.50;;
77012;SDS011;67260;53.130;17.982;2023-03-08T00:08:41;11.10;;;4.40;;
77012;SDS011;67260;53.130;17.982;2023-03-08T00:11:09;10.60;;;4.80;;
77012;SDS011;67260;53.130;17.982;2023-03-08T00:13:37;15.10;;;5.40;;
77012;SDS011;67260;53.130;17.982;2023-03-08T00:16:05;8.00;;;3.50;;
77012;SDS011;67260;53.130;17.982;2023-03-08T00:18:34;8.70;;;3.60;;
77012;SDS011;67260;53.130;17.982;2023-03-08T00:21:03;10.40;;;5.00;;
77012;SDS011;67260;53.130;17.982;2023-03-08T00:23:32;10.60;;;4.80;;
77012;SDS011;67260;53.130;17.982;2023-03-08T00:25:58;10.20;;;3.80;;
77012;SDS011;67260;53.130;17.982;2023-03-08T00:28:25;6.90;;;3.00;;
77012;SDS011;67260;53.130;17.982;2023-03-08T00:31:00;12.10;;;4.50;;
77012;SDS011;67260;53.130;17.982;2023-03-08T00:33:28;10.10;;;4.30;;
77012;SDS011;67260;53.130;17.982;2023-03-08T00:36:03;9.10;;;3.30;;
77012;SDS011;67260;53.130;17.982;2023-03-08T00:38:31;12.10;;;4.60;;
77012;SDS011;67260;53.130;17.982;2023-03-08T00:40:59;12.70;;;4.50;;
77012;SDS011;67260;53.130;17.982;2023-03-08T00:43:27;8.50;;;3.90;;
77012;SDS011;67260;53.130;17.982;2023-03-08T00:45:54;6.40;;;3.30;;
77012;SDS011;67260;53.130;17.982;2023-03-08T00:48:22;11.30;;;5.20;;
77012;SDS011;67260;53.130;17.982;2023-03-08T00:50:51;9.00;;;4.10;;
77012;SDS011;67260;53.130;17.982;2023-03-08T00:53:18;4.80;;;2.60;;
77012;SDS011;67260;53.130;17.982;2023-03-08T00:55:49;9.60;;;4.10;;
77012;SDS011;67260;53.130;17.982;2023-03-08T00:58:23;7.60;;;3.80;;
77012;SDS011;67260;53.130;17.982;2023-03-08T01:00:51;6.00;;;2.70;;
77012;SDS011;67260;53.130;17.982;2023-03-08T01:03:19;7.70;;;3.10;;
77012;SDS011;67260;53.130;17.982;2023-03-08T01:05:49;8.40;;;2.90;;
77012;SDS011;67260;53.130;17.982;2023-03-08T01:08:17;10.50;;;3.70;;
77012;SDS011;67260;53.130;17.982;2023-03-08T01:10:50;6.90;;;3.00;;
77012;SDS011;67260;53.130;17.982;2023-03-08T01:13:19;7.30;;;3.20;;
77012;SDS011;67260;53.130;17.982;2023-03-08T01:15:46;7.20;;;3.60;;
77012;SDS011;67260;53.130;17.982;2023-03-08T01:18:13;5.20;;;2.40;;
77012;SDS011;67260;53.130;17.982;2023-03-08T01:20:40;8.20;;;3.90;;
77012;SDS011;67260;53.130;17.982;2023-03-08T01:23:07;8.10;;;4.00;;
77012;SDS011;67260;53.130;17.982;2023-03-08T01:25:35;7.70;;;3.90;;
77012;SDS011;67260;53.130;17.982;2023-03-08T01:28:02;7.80;;;3.90;;
77012;SDS011;67260;53.130;17.982;2023-03-08T01:30:29;8.50;;;2.60;;
77012;SDS011;67260;53.130;17.982;2023-03-08T01:32:56;8.50;;;2.40;;
77012;SDS011;67260;53.130;17.982;2023-03-08T01:35:25;7.10;;;2.50;;
77012;SDS011;67260;53.130;17.982;2023-03-08T01:37:52;8.30;;;3.90;;
77012;SDS011;67260;53.130;17.982;2023-03-08T01:40:19;7.60;;;3.10;;
77012;SDS011;67260;53.130;17.982;2023-03-08T01:42:46;6.50;;;3.20;;
77012;SDS011;67260;53.130;17.982;2023-03-08T01:48:19;5.30;;;2.70;;
77012;SDS011;67260;53.130;17.982;2023-03-08T01:51:00;5.60;;;2.60;;
77012;SDS011;67260;53.130;17.982;2023-03-08T01:53:31;6.60;;;2.70;;
77012;SDS011;67260;53.130;17.982;2023-03-08T01:55:59;5.40;;;2.60;;
77012;SDS011;67260;53.130;17.982;2023-03-08T01:58:27;8.70;;;3.30;;
77012;SDS011;67260;53.130;17.982;2023-03-08T02:00:54;5.50;;;2.40;;
77012;SDS011;67260;53.130;17.982;2023-03-08T02:05:48;7.60;;;2.50;;
77012;SDS011;67260;53.130;17.982;2023-03-08T02:08:19;7.20;;;2.80;;
77012;SDS011;67260;53.130;17.982;2023-03-08T02:10:46;6.50;;;2.20;;
77012;SDS011;67260;53.130;17.982;2023-03-08T02:13:14;8.20;;;2.80;;
77012;SDS011;67260;53.130;17.982;2023-03-08T02:15:42;7.00;;;2.80;;
77012;SDS011;67260;53.130;17.982;2023-03-08T02:18:10;7.00;;;2.50;;
77012;SDS011;67260;53.130;17.982;2023-03-08T02:20:38;4.60;;;2.10;;
77012;SDS011;67260;53.130;17.982;2023-03-08T02:25:49;4.90;;;1.90;;
77012;SDS011;67260;53.130;17.982;2023-03-08T02:28:35;4.80;;;2.10;;
77012;SDS011;67260;53.130;17.982;2023-03-08T02:31:02;4.10;;;1.40;;
77012;SDS011;67260;53.130;17.982;2023-03-08T02:33:29;7.30;;;2.20;;
77012;SDS011;67260;53.130;17.982;2023-03-08T02:35:57;5.90;;;2.10;;
77012;SDS011;67260;53.130;17.982;2023-03-08T02:38:26;9.00;;;2.30;;
77012;SDS011;67260;53.130;17.982;2023-03-08T02:40:53;6.40;;;2.40;;
77012;SDS011;67260;53.130;17.982;2023-03-08T02:43:20;4.40;;;2.00;;
77012;SDS011;67260;53.130;17.982;2023-03-08T02:45:47;6.20;;;2.20;;
77012;SDS011;67260;53.130;17.982;2023-03-08T02:48:14;5.20;;;2.10;;
77012;SDS011;67260;53.130;17.982;2023-03-08T02:50:42;4.00;;;1.70;;
77012;SDS011;67260;53.130;17.982;2023-03-08T02:55:35;5.60;;;1.90;;
77012;SDS011;67260;53.130;17.982;2023-03-08T02:58:04;7.40;;;2.20;;
77012;SDS011;67260;53.130;17.982;2023-03-08T03:00:32;4.30;;;1.60;;
77012;SDS011;67260;53.130;17.982;2023-03-08T03:03:00;4.80;;;1.70;;
77012;SDS011;67260;53.130;17.982;2023-03-08T03:07:54;5.70;;;2.00;;
77012;SDS011;67260;53.130;17.982;2023-03-08T03:10:22;4.20;;;1.70;;
77012;SDS011;67260;53.130;17.982;2023-03-08T03:15:18;4.80;;;1.50;;
77012;SDS011;67260;53.130;17.982;2023-03-08T03:17:46;6.60;;;1.70;;
77012;SDS011;67260;53.130;17.982;2023-03-08T03:20:13;4.80;;;1.40;;
77012;SDS011;67260;53.130;17.982;2023-03-08T03:22:39;3.30;;;1.30;;
77012;SDS011;67260;53.130;17.982;2023-03-08T03:25:07;3.90;;;1.40;;
77012;SDS011;67260;53.130;17.982;2023-03-08T03:27:34;5.10;;;1.30;;
77012;SDS011;67260;53.130;17.982;2023-03-08T03:30:01;2.60;;;1.00;;
77012;SDS011;67260;53.130;17.982;2023-03-08T03:32:28;4.80;;;1.40;;
77012;SDS011;67260;53.130;17.982;2023-03-08T03:34:56;4.60;;;1.70;;
77012;SDS011;67260;53.130;17.982;2023-03-08T03:37:23;7.00;;;2.30;;
77012;SDS011;67260;53.130;17.982;2023-03-08T03:39:49;5.50;;;1.50;;
77012;SDS011;67260;53.130;17.982;2023-03-08T03:42:17;5.50;;;1.30;;
77012;SDS011;67260;53.130;17.982;2023-03-08T03:44:50;4.60;;;1.50;;
77012;SDS011;67260;53.130;17.982;2023-03-08T03:47:19;6.00;;;1.60;;
77012;SDS011;67260;53.130;17.982;2023-03-08T03:49:46;4.30;;;1.30;;
77012;SDS011;67260;53.130;17.982;2023-03-08T03:52:13;4.00;;;1.30;;
77012;SDS011;67260;53.130;17.982;2023-03-08T03:54:44;4.40;;;1.50;;
77012;SDS011;67260;53.130;17.982;2023-03-08T03:57:11;6.80;;;1.40;;
77012;SDS011;67260;53.130;17.982;2023-03-08T03:59:39;4.50;;;1.40;;
77012;SDS011;67260;53.130;17.982;2023-03-08T04:02:06;3.80;;;1.50;;
77012;SDS011;67260;53.130;17.982;2023-03-08T04:04:38;5.60;;;1.40;;
77012;SDS011;67260;53.130;17.982;2023-03-08T04:07:04;4.20;;;1.10;;
77012;SDS011;67260;53.130;17.982;2023-03-08T04:09:35;3.30;;;1.00;;
77012;SDS011;67260;53.130;17.982;2023-03-08T04:12:09;2.10;;;0.90;;
77012;SDS011;67260;53.130;17.982;2023-03-08T04:14:36;5.30;;;1.20;;
77012;SDS011;67260;53.130;17.982;2023-03-08T04:17:05;2.50;;;1.00;;
77012;SDS011;67260;53.130;17.982;2023-03-08T04:19:38;5.00;;;1.70;;
77012;SDS011;67260;53.130;17.982;2023-03-08T04:22:05;3.10;;;1.20;;
77012;SDS011;67260;53.130;17.982;2023-03-08T04:24:37;4.90;;;1.20;;
77012;SDS011;67260;53.130;17.982;2023-03-08T04:27:07;6.10;;;1.40;;
77012;SDS011;67260;53.130;17.982;2023-03-08T04:29:35;6.60;;;1.80;;
77012;SDS011;67260;53.130;17.982;2023-03-08T04:32:02;5.50;;;1.40;;
77012;SDS011;67260;53.130;17.982;2023-03-08T04:34:37;6.40;;;1.20;;
77012;SDS011;67260;53.130;17.982;2023-03-08T04:37:05;4.20;;;1.40;;
77012;SDS011;67260;53.130;17.982;2023-03-08T04:39:32;8.30;;;1.50;;
77012;SDS011;67260;53.130;17.982;2023-03-08T04:44:29;6.80;;;1.50;;
77012;SDS011;67260;53.130;17.982;2023-03-08T04:46:56;5.70;;;1.40;;
77012;SDS011;67260;53.130;17.982;2023-03-08T04:49:27;3.60;;;1.40;;
77012;SDS011;67260;53.130;17.982;2023-03-08T04:51:59;3.30;;;1.30;;
77012;SDS011;67260;53.130;17.982;2023-03-08T04:54:25;3.80;;;1.10;;
77012;SDS011;67260;53.130;17.982;2023-03-08T04:56:58;3.90;;;0.90;;
77012;SDS011;67260;53.130;17.982;2023-03-08T04:59:25;3.00;;;1.20;;
77012;SDS011;67260;53.130;17.982;2023-03-08T05:01:53;3.90;;;0.90;;
77012;SDS011;67260;53.130;17.982;2023-03-08T05:04:20;4.30;;;1.50;;
77012;SDS011;67260;53.130;17.982;2023-03-08T05:06:47;3.30;;;1.10;;
77012;SDS011;67260;53.130;17.982;2023-03-08T05:09:16;4.10;;;1.30;;
77012;SDS011;67260;53.130;17.982;2023-03-08T05:11:44;5.70;;;2.00;;
77012;SDS011;67260;53.130;17.982;2023-03-08T05:14:11;6.50;;;2.00;;
77012;SDS011;67260;53.130;17.982;2023-03-08T05:16:38;4.10;;;1.60;;
77012;SDS011;67260;53.130;17.982;2023-03-08T05:19:04;5.80;;;1.80;;
77012;SDS011;67260;53.130;17.982;2023-03-08T05:21:35;6.70;;;2.30;;
77012;SDS011;67260;53.130;17.982;2023-03-08T05:24:02;7.10;;;1.40;;
77012;SDS011;67260;53.130;17.982;2023-03-08T05:26:31;9.10;;;2.20;;
77012;SDS011;67260;53.130;17.982;2023-03-08T05:31:30;5.20;;;1.50;;
77012;SDS011;67260;53.130;17.982;2023-03-08T05:33:58;13.40;;;3.90;;
77012;SDS011;67260;53.130;17.982;2023-03-08T05:36:34;6.20;;;2.30;;
77012;SDS011;67260;53.130;17.982;2023-03-08T05:41:36;9.00;;;2.30;;
77012;SDS011;67260;53.130;17.982;2023-03-08T05:44:03;6.30;;;1.90;;
77012;SDS011;67260;53.130;17.982;2023-03-08T05:46:31;9.30;;;2.60;;
77012;SDS011;67260;53.130;17.982;2023-03-08T05:48:59;6.90;;;2.30;;
77012;SDS011;67260;53.130;17.982;2023-03-08T05:51:26;6.10;;;1.80;;
77012;SDS011;67260;53.130;17.982;2023-03-08T05:53:53;8.70;;;2.70;;
77012;SDS011;67260;53.130;17.982;2023-03-08T05:56:21;7.10;;;2.50;;
77012;SDS011;67260;53.130;17.982;2023-03-08T05:59:05;9.50;;;2.50;;
77012;SDS011;67260;53.130;17.982;2023-03-08T06:01:32;3.70;;;1.40;;
77012;SDS011;67260;53.130;17.982;2023-03-08T06:04:06;7.00;;;1.60;;
77012;SDS011;67260;53.130;17.982;2023-03-08T06:06:34;7.80;;;1.90;;
77012;SDS011;67260;53.130;17.982;2023-03-08T06:09:02;6.80;;;2.20;;
77012;SDS011;67260;53.130;17.982;2023-03-08T06:11:30;5.70;;;2.00;;
77012;SDS011;67260;53.130;17.982;2023-03-08T06:13:57;10.40;;;2.70;;
77012;SDS011;67260;53.130;17.982;2023-03-08T06:16:24;6.90;;;2.40;;
77012;SDS011;67260;53.130;17.982;2023-03-08T06:18:51;9.50;;;2.10;;
77012;SDS011;67260;53.130;17.982;2023-03-08T06:23:49;13.50;;;4.80;;
77012;SDS011;67260;53.130;17.982;2023-03-08T06:26:16;15.70;;;5.50;;
77012;SDS011;67260;53.130;17.982;2023-03-08T06:28:43;17.00;;;5.20;;
77012;SDS011;67260;53.130;17.982;2023-03-08T06:31:12;9.50;;;3.40;;
77012;SDS011;67260;53.130;17.982;2023-03-08T06:33:41;10.50;;;3.20;;
77012;SDS011;67260;53.130;17.982;2023-03-08T06:36:12;12.40;;;3.70;;
77012;SDS011;67260;53.130;17.982;2023-03-08T06:38:42;9.90;;;2.60;;
77012;SDS011;67260;53.130;17.982;2023-03-08T06:41:10;10.80;;;3.50;;
77012;SDS011;67260;53.130;17.982;2023-03-08T06:43:38;11.10;;;3.00;;
77012;SDS011;67260;53.130;17.982;2023-03-08T06:48:33;8.60;;;3.10;;
77012;SDS011;67260;53.130;17.982;2023-03-08T06:51:02;13.50;;;4.40;;
77012;SDS011;67260;53.130;17.982;2023-03-08T06:53:30;7.10;;;3.30;;
77012;SDS011;67260;53.130;17.982;2023-03-08T06:56:01;11.00;;;3.60;;
77012;SDS011;67260;53.130;17.982;2023-03-08T06:58:30;5.40;;;2.20;;
77012;SDS011;67260;53.130;17.982;2023-03-08T07:00:57;11.90;;;4.70;;
77012;SDS011;67260;53.130;17.982;2023-03-08T07:03:30;12.90;;;6.20;;
77012;SDS011;67260;53.130;17.982;2023-03-08T07:06:04;10.40;;;4.20;;
77012;SDS011;67260;53.130;17.982;2023-03-08T07:08:32;10.30;;;4.40;;
77012;SDS011;67260;53.130;17.982;2023-03-08T07:11:00;8.30;;;3.00;;
77012;SDS011;67260;53.130;17.982;2023-03-08T07:13:27;7.10;;;2.70;;
77012;SDS011;67260;53.130;17.982;2023-03-08T07:15:55;7.30;;;2.80;;
77012;SDS011;67260;53.130;17.982;2023-03-08T07:18:23;10.40;;;4.50;;
77012;SDS011;67260;53.130;17.982;2023-03-08T07:20:51;14.80;;;6.80;;
77012;SDS011;67260;53.130;17.982;2023-03-08T07:23:26;12.30;;;4.90;;
77012;SDS011;67260;53.130;17.982;2023-03-08T07:28:21;12.60;;;4.90;;
77012;SDS011;67260;53.130;17.982;2023-03-08T07:30:48;10.30;;;3.60;;
77012;SDS011;67260;53.130;17.982;2023-03-08T07:33:18;9.70;;;3.60;;
77012;SDS011;67260;53.130;17.982;2023-03-08T07:35:45;8.70;;;3.70;;
77012;SDS011;67260;53.130;17.982;2023-03-08T07:38:13;11.50;;;3.90;;
77012;SDS011;67260;53.130;17.982;2023-03-08T07:40:41;13.00;;;4.40;;
77012;SDS011;67260;53.130;17.982;2023-03-08T07:43:08;7.90;;;3.20;;
77012;SDS011;67260;53.130;17.982;2023-03-08T07:45:52;13.90;;;5.40;;
77012;SDS011;67260;53.130;17.982;2023-03-08T07:48:18;13.30;;;4.80;;
77012;SDS011;67260;53.130;17.982;2023-03-08T07:50:45;25.30;;;11.40;;
77012;SDS011;67260;53.130;17.982;2023-03-08T07:55:38;8.30;;;3.20;;
77012;SDS011;67260;53.130;17.982;2023-03-08T07:58:05;11.00;;;4.20;;
77012;SDS011;67260;53.130;17.982;2023-03-08T08:02:58;8.80;;;3.70;;
77012;SDS011;67260;53.130;17.982;2023-03-08T08:05:25;10.70;;;3.80;;
77012;SDS011;67260;53.130;17.982;2023-03-08T08:07:52;11.60;;;4.00;;
77012;SDS011;67260;53.130;17.982;2023-03-08T08:10:18;5.90;;;2.00;;
77012;SDS011;67260;53.130;17.982;2023-03-08T08:12:46;10.60;;;3.90;;
77012;SDS011;67260;53.130;17.982;2023-03-08T08:15:12;6.20;;;2.50;;
77012;SDS011;67260;53.130;17.982;2023-03-08T08:17:39;5.70;;;2.50;;
77012;SDS011;67260;53.130;17.982;2023-03-08T08:20:06;8.90;;;3.50;;
77012;SDS011;67260;53.130;17.982;2023-03-08T08:22:37;8.50;;;3.70;;
77012;SDS011;67260;53.130;17.982;2023-03-08T08:25:04;8.10;;;3.60;;
77012;SDS011;67260;53.130;17.982;2023-03-08T08:27:32;9.50;;;3.10;;
77012;SDS011;67260;53.130;17.982;2023-03-08T08:29:59;6.10;;;2.40;;
77012;SDS011;67260;53.130;17.982;2023-03-08T08:32:27;15.80;;;4.70;;
77012;SDS011;67260;53.130;17.982;2023-03-08T08:34:53;7.00;;;3.00;;
77012;SDS011;67260;53.130;17.982;2023-03-08T08:37:20;8.40;;;3.10;;
77012;SDS011;67260;53.130;17.982;2023-03-08T08:42:13;34.50;;;11.90;;
77012;SDS011;67260;53.130;17.982;2023-03-08T08:44:40;36.70;;;12.50;;
77012;SDS011;67260;53.130;17.982;2023-03-08T08:47:06;13.40;;;5.10;;
77012;SDS011;67260;53.130;17.982;2023-03-08T08:49:34;9.60;;;3.60;;
77012;SDS011;67260;53.130;17.982;2023-03-08T08:52:01;9.40;;;3.80;;
77012;SDS011;67260;53.130;17.982;2023-03-08T08:54:27;10.80;;;4.10;;
77012;SDS011;67260;53.130;17.982;2023-03-08T08:56:54;9.20;;;3.40;;
77012;SDS011;67260;53.130;17.982;2023-03-08T08:59:21;7.50;;;2.80;;
77012;SDS011;67260;53.130;17.982;2023-03-08T09:04:14;4.80;;;1.90;;
77012;SDS011;67260;53.130;17.982;2023-03-08T09:06:42;9.80;;;3.70;;
77012;SDS011;67260;53.130;17.982;2023-03-08T09:09:09;13.20;;;4.80;;
77012;SDS011;67260;53.130;17.982;2023-03-08T09:11:36;4.70;;;1.90;;
77012;SDS011;67260;53.130;17.982;2023-03-08T09:16:30;5.90;;;1.90;;
77012;SDS011;67260;53.130;17.982;2023-03-08T09:18:59;7.40;;;2.60;;
77012;SDS011;67260;53.130;17.982;2023-03-08T09:21:29;4.80;;;1.70;;
77012;SDS011;67260;53.130;17.982;2023-03-08T09:24:00;5.00;;;2.00;;
77012;SDS011;67260;53.130;17.982;2023-03-08T09:26:29;10.80;;;3.40;;
77012;SDS011;67260;53.130;17.982;2023-03-08T09:28:57;11.90;;;4.10;;
77012;SDS011;67260;53.130;17.982;2023-03-08T09:33:57;10.10;;;3.90;;
77012;SDS011;67260;53.130;17.982;2023-03-08T09:36:25;6.30;;;2.60;;
77012;SDS011;67260;53.130;17.982;2023-03-08T09:38:55;8.00;;;3.00;;
77012;SDS011;67260;53.130;17.982;2023-03-08T09:44:11;7.00;;;2.70;;
77012;SDS011;67260;53.130;17.982;2023-03-08T09:47:34;6.70;;;1.90;;
77012;SDS011;67260;53.130;17.982;2023-03-08T09:49:54;6.50;;;2.50;;
77012;SDS011;67260;53.130;17.982;2023-03-08T09:54:57;6.90;;;3.10;;
77012;SDS011;67260;53.130;17.982;2023-03-08T09:57:36;6.30;;;1.90;;
77012;SDS011;67260;53.130;17.982;2023-03-08T10:00:18;5.00;;;1.30;;
77012;SDS011;67260;53.130;17.982;2023-03-08T10:05:41;4.60;;;1.40;;
77012;SDS011;67260;53.130;17.982;2023-03-08T10:08:16;6.00;;;1.70;;
77012;SDS011;67260;53.130;17.982;2023-03-08T10:11:04;4.70;;;1.90;;
77012;SDS011;67260;53.130;17.982;2023-03-08T10:13:39;7.00;;;1.70;;
77012;SDS011;67260;53.130;17.982;2023-03-08T10:19:00;6.40;;;2.10;;
77012;SDS011;67260;53.130;17.982;2023-03-08T10:21:33;4.60;;;2.00;;
77012;SDS011;67260;53.130;17.982;2023-03-08T10:24:11;12.00;;;3.50;;
77012;SDS011;67260;53.130;17.982;2023-03-08T10:26:41;19.80;;;6.60;;
77012;SDS011;67260;53.130;17.982;2023-03-08T10:29:12;10.10;;;3.20;;
77012;SDS011;67260;53.130;17.982;2023-03-08T10:31:41;5.90;;;2.10;;
77012;SDS011;67260;53.130;17.982;2023-03-08T10:37:03;10.30;;;3.50;;
77012;SDS011;67260;53.130;17.982;2023-03-08T10:39:35;12.30;;;5.20;;
77012;SDS011;67260;53.130;17.982;2023-03-08T10:42:13;12.40;;;5.00;;
77012;SDS011;67260;53.130;17.982;2023-03-08T10:44:50;10.10;;;4.30;;
77012;SDS011;67260;53.130;17.982;2023-03-08T10:47:27;7.30;;;3.10;;
77012;SDS011;67260;53.130;17.982;2023-03-08T10:55:06;6.10;;;1.90;;
77012;SDS011;67260;53.130;17.982;2023-03-08T10:57:40;4.90;;;1.80;;
77012;SDS011;67260;53.130;17.982;2023-03-08T11:03:29;8.90;;;3.30;;
77012;SDS011;67260;53.130;17.982;2023-03-08T11:06:02;4.50;;;1.80;;
77012;SDS011;67260;53.130;17.982;2023-03-08T11:08:56;7.00;;;2.40;;
77012;SDS011;67260;53.130;17.982;2023-03-08T11:11:25;3.10;;;1.30;;
77012;SDS011;67260;53.130;17.982;2023-03-08T11:13:52;5.80;;;1.90;;
77012;SDS011;67260;53.130;17.982;2023-03-08T11:21:31;6.70;;;3.00;;
77012;SDS011;67260;53.130;17.982;2023-03-08T11:46:20;21.70;;;9.00;;
77012;SDS011;67260;53.130;17.982;2023-03-08T11:57:11;19.90;;;10.70;;
77012;SDS011;67260;53.130;17.982;2023-03-08T11:59:51;14.40;;;7.10;;
77012;SDS011;67260;53.130;17.982;2023-03-08T12:02:27;17.20;;;7.20;;
77012;SDS011;67260;53.130;17.982;2023-03-08T12:07:42;20.90;;;8.30;;
77012;SDS011;67260;53.130;17.982;2023-03-08T12:12:45;10.90;;;5.60;;
77012;SDS011;67260;53.130;17.982;2023-03-08T12:15:38;7.60;;;4.00;;
77012;SDS011;67260;53.130;17.982;2023-03-08T12:18:22;13.60;;;5.80;;
77012;SDS011;67260;53.130;17.982;2023-03-08T12:27:03;13.90;;;7.20;;
77012;SDS011;67260;53.130;17.982;2023-03-08T12:29:40;71.90;;;22.40;;
77012;SDS011;67260;53.130;17.982;2023-03-08T12:32:14;37.90;;;13.20;;
77012;SDS011;67260;53.130;17.982;2023-03-08T12:34:43;18.50;;;8.50;;
77012;SDS011;67260;53.130;17.982;2023-03-08T12:37:28;17.30;;;6.30;;
77012;SDS011;67260;53.130;17.982;2023-03-08T12:40:06;28.30;;;10.80;;
77012;SDS011;67260;53.130;17.982;2023-03-08T12:48:25;13.10;;;5.40;;
77012;SDS011;67260;53.130;17.982;2023-03-08T13:01:58;13.40;;;5.50;;
77012;SDS011;67260;53.130;17.982;2023-03-08T13:04:31;8.10;;;3.40;;
77012;SDS011;67260;53.130;17.982;2023-03-08T13:07:11;27.30;;;9.90;;
77012;SDS011;67260;53.130;17.982;2023-03-08T13:12:31;34.50;;;13.10;;
77012;SDS011;67260;53.130;17.982;2023-03-08T13:17:39;15.60;;;6.20;;
77012;SDS011;67260;53.130;17.982;2023-03-08T13:20:17;10.40;;;4.50;;
77012;SDS011;67260;53.130;17.982;2023-03-08T13:28:17;8.30;;;3.60;;
77012;SDS011;67260;53.130;17.982;2023-03-08T13:30:48;7.40;;;3.20;;
77012;SDS011;67260;53.130;17.982;2023-03-08T13:33:24;9.60;;;4.40;;
77012;SDS011;67260;53.130;17.982;2023-03-08T13:35:58;8.60;;;3.40;;
77012;SDS011;67260;53.130;17.982;2023-03-08T13:38:28;11.90;;;5.10;;
77012;SDS011;67260;53.130;17.982;2023-03-08T13:43:28;13.40;;;5.20;;
77012;SDS011;67260;53.130;17.982;2023-03-08T13:46:02;9.40;;;4.60;;
77012;SDS011;67260;53.130;17.982;2023-03-08T13:48:32;10.60;;;5.10;;
77012;SDS011;67260;53.130;17.982;2023-03-08T13:51:01;9.10;;;3.90;;
77012;SDS011;67260;53.130;17.982;2023-03-08T13:53:30;7.00;;;2.80;;
77012;SDS011;67260;53.130;17.982;2023-03-08T13:55:59;18.00;;;7.50;;
77012;SDS011;67260;53.130;17.982;2023-03-08T14:01:12;11.50;;;4.60;;
77012;SDS011;67260;53.130;17.982;2023-03-08T14:03:40;9.30;;;4.40;;
77012;SDS011;67260;53.130;17.982;2023-03-08T14:06:22;7.80;;;3.50;;
77012;SDS011;67260;53.130;17.982;2023-03-08T14:08:54;9.20;;;4.60;;
77012;SDS011;67260;53.130;17.982;2023-03-08T14:11:28;5.40;;;2.70;;
77012;SDS011;67260;53.130;17.982;2023-03-08T14:14:01;6.60;;;2.80;;
77012;SDS011;67260;53.130;17.982;2023-03-08T14:16:34;5.20;;;2.40;;
77012;SDS011;67260;53.130;17.982;2023-03-08T14:21:49;8.40;;;3.00;;
77012;SDS011;67260;53.130;17.982;2023-03-08T14:24:22;9.10;;;4.00;;
77012;SDS011;67260;53.130;17.982;2023-03-08T14:26:55;7.90;;;3.20;;
77012;SDS011;67260;53.130;17.982;2023-03-08T14:29:23;10.20;;;4.40;;
77012;SDS011;67260;53.130;17.982;2023-03-08T14:34:27;10.90;;;5.00;;
77012;SDS011;67260;53.130;17.982;2023-03-08T14:37:04;11.90;;;5.10;;
77012;SDS011;67260;53.130;17.982;2023-03-08T14:39:38;12.60;;;6.40;;
77012;SDS011;67260;53.130;17.982;2023-03-08T14:42:08;8.70;;;4.10;;
77012;SDS011;67260;53.130;17.982;2023-03-08T14:44:41;9.40;;;4.10;;
77012;SDS011;67260;53.130;17.982;2023-03-08T14:50:23;10.30;;;4.90;;
77012;SDS011;67260;53.130;17.982;2023-03-08T14:52:47;7.70;;;4.40;;
77012;SDS011;67260;53.130;17.982;2023-03-08T14:57:49;8.50;;;3.90;;
77012;SDS011;67260;53.130;17.982;2023-03-08T15:00:17;15.90;;;7.20;;
77012;SDS011;67260;53.130;17.982;2023-03-08T15:02:45;24.90;;;8.00;;
77012;SDS011;67260;53.130;17.982;2023-03-08T15:05:13;18.20;;;8.20;;
77012;SDS011;67260;53.130;17.982;2023-03-08T15:07:41;9.80;;;4.20;;
77012;SDS011;67260;53.130;17.982;2023-03-08T15:10:14;14.10;;;5.60;;
77012;SDS011;67260;53.130;17.982;2023-03-08T15:13:03;10.00;;;4.30;;
77012;SDS011;67260;53.130;17.982;2023-03-08T15:15:31;10.80;;;3.80;;
77012;SDS011;67260;53.130;17.982;2023-03-08T15:20:24;37.50;;;22.20;;
77012;SDS011;67260;53.130;17.982;2023-03-08T15:25:27;9.60;;;2.90;;
77012;SDS011;67260;53.130;17.982;2023-03-08T15:27:55;11.10;;;4.00;;
77012;SDS011;67260;53.130;17.982;2023-03-08T15:30:23;12.60;;;6.00;;
77012;SDS011;67260;53.130;17.982;2023-03-08T15:32:52;12.40;;;4.80;;
77012;SDS011;67260;53.130;17.982;2023-03-08T15:35:20;13.00;;;5.20;;
77012;SDS011;67260;53.130;17.982;2023-03-08T15:37:47;10.60;;;4.80;;
77012;SDS011;67260;53.130;17.982;2023-03-08T15:40:16;21.10;;;9.20;;
77012;SDS011;67260;53.130;17.982;2023-03-08T15:42:44;15.40;;;7.30;;
77012;SDS011;67260;53.130;17.982;2023-03-08T15:45:12;14.40;;;6.30;;
77012;SDS011;67260;53.130;17.982;2023-03-08T15:47:39;15.10;;;5.90;;
77012;SDS011;67260;53.130;17.982;2023-03-08T15:50:17;15.30;;;5.90;;
77012;SDS011;67260;53.130;17.982;2023-03-08T15:52:43;19.70;;;8.00;;
77012;SDS011;67260;53.130;17.982;2023-03-08T15:57:38;16.50;;;7.00;;
77012;SDS011;67260;53.130;17.982;2023-03-08T16:00:07;15.00;;;5.70;;
77012;SDS011;67260;53.130;17.982;2023-03-08T16:02:37;19.00;;;8.90;;
77012;SDS011;67260;53.130;17.982;2023-03-08T16:05:05;15.20;;;6.20;;
77012;SDS011;67260;53.130;17.982;2023-03-08T16:07:34;12.00;;;4.70;;
77012;SDS011;67260;53.130;17.982;2023-03-08T16:10:02;14.90;;;5.80;;
77012;SDS011;67260;53.130;17.982;2023-03-08T16:12:30;14.80;;;5.70;;
77012;SDS011;67260;53.130;17.982;2023-03-08T16:14:56;17.80;;;5.50;;
77012;SDS011;67260;53.130;17.982;2023-03-08T16:17:23;16.80;;;5.80;;
77012;SDS011;67260;53.130;17.982;2023-03-08T16:19:51;17.20;;;5.60;;
77012;SDS011;67260;53.130;17.982;2023-03-08T16:22:18;13.40;;;5.40;;
77012;SDS011;67260;53.130;17.982;2023-03-08T16:24:45;16.30;;;5.60;;
77012;SDS011;67260;53.130;17.982;2023-03-08T16:27:12;17.50;;;6.40;;
77012;SDS011;67260;53.130;17.982;2023-03-08T16:29:39;16.80;;;6.00;;
77012;SDS011;67260;53.130;17.982;2023-03-08T16:34:32;14.50;;;5.80;;
77012;SDS011;67260;53.130;17.982;2023-03-08T16:36:59;21.90;;;8.20;;
77012;SDS011;67260;53.130;17.982;2023-03-08T16:39:26;20.90;;;7.40;;
77012;SDS011;67260;53.130;17.982;2023-03-08T16:44:22;17.20;;;6.50;;
77012;SDS011;67260;53.130;17.982;2023-03-08T16:46:53;20.90;;;6.70;;
77012;SDS011;67260;53.130;17.982;2023-03-08T16:49:21;21.80;;;7.90;;
77012;SDS011;67260;53.130;17.982;2023-03-08T16:51:53;14.50;;;5.80;;
77012;SDS011;67260;53.130;17.982;2023-03-08T16:54:21;17.50;;;6.90;;
77012;SDS011;67260;53.130;17.982;2023-03-08T16:56:48;18.00;;;7.10;;
77012;SDS011;67260;53.130;17.982;2023-03-08T16:59:15;16.60;;;7.20;;
77012;SDS011;67260;53.130;17.982;2023-03-08T17:01:42;21.40;;;8.60;;
77012;SDS011;67260;53.130;17.982;2023-03-08T17:04:10;19.10;;;7.90;;
77012;SDS011;67260;53.130;17.982;2023-03-08T17:06:37;21.80;;;8.40;;
77012;SDS011;67260;53.130;17.982;2023-03-08T17:09:05;19.50;;;9.80;;
77012;SDS011;67260;53.130;17.982;2023-03-08T17:11:32;20.30;;;12.60;;
77012;SDS011;67260;53.130;17.982;2023-03-08T17:14:00;21.30;;;8.90;;
77012;SDS011;67260;53.130;17.982;2023-03-08T17:16:30;18.90;;;8.50;;
77012;SDS011;67260;53.130;17.982;2023-03-08T17:18:58;19.10;;;8.80;;
77012;SDS011;67260;53.130;17.982;2023-03-08T17:21:26;16.10;;;8.30;;
77012;SDS011;67260;53.130;17.982;2023-03-08T17:23:54;21.10;;;9.60;;
77012;SDS011;67260;53.130;17.982;2023-03-08T17:26:21;21.80;;;9.30;;
77012;SDS011;67260;53.130;17.982;2023-03-08T17:28:49;21.40;;;8.50;;
77012;SDS011;67260;53.130;17.982;2023-03-08T17:31:18;25.60;;;10.90;;
77012;SDS011;67260;53.130;17.982;2023-03-08T17:33:46;26.50;;;11.10;;